Time;durP1;ratioP1;P1;durP2;ratioP2;P2;SDS_P1;SDS_P2;PMS_P1;PMS_P2;Temp;Humidity;BMP_temperature;BMP_pressure;BME280_temperature;BME280_humidity;BME280_pressure;Samples;Min_cycle;Max_cycle;Signal;HPM_P1;HPM_P2
2022/05/18 00:02:23;;;;;;;7.20;5.50;;;16.30;99.90;;;;;;5065038;28;20282;-71
2022/05/18 00:04:49;;;;;;;8.33;5.37;;;16.20;99.90;;;;;;5050092;28;20199;-70
2022/05/18 00:07:16;;;;;;;8.60;5.50;;;16.30;99.90;;;;;;5065414;28;20222;-71
2022/05/18 00:09:45;;;;;;;8.17;5.50;;;16.30;99.90;;;;;;5061941;28;20187;-71
2022/05/18 00:12:11;;;;;;;7.23;5.30;;;16.30;99.90;;;;;;5066351;28;20183;-72
2022/05/18 00:14:39;;;;;;;10.47;5.33;;;16.30;99.90;;;;;;5069212;28;20188;-71
2022/05/18 00:17:06;;;;;;;8.53;5.30;;;16.40;99.90;;;;;;5060558;28;20186;-72
2022/05/18 00:19:33;;;;;;;6.10;5.30;;;16.40;99.90;;;;;;5051370;28;20198;-71
2022/05/18 00:22:00;;;;;;;8.10;5.63;;;16.40;99.90;;;;;;5051729;28;20199;-71
2022/05/18 00:24:27;;;;;;;6.03;5.20;;;16.30;99.90;;;;;;5052011;28;20186;-71
2022/05/18 00:26:54;;;;;;;8.07;5.50;;;16.40;99.90;;;;;;5049332;28;21068;-71
2022/05/18 00:29:21;;;;;;;7.67;5.27;;;16.40;99.90;;;;;;5047520;28;20226;-71
2022/05/18 00:31:48;;;;;;;7.13;4.90;;;16.40;99.90;;;;;;5080785;28;20199;-71
2022/05/18 00:34:18;;;;;;;9.67;5.70;;;16.40;99.90;;;;;;5067469;28;20643;-71
2022/05/18 00:36:45;;;;;;;9.33;5.77;;;16.40;99.90;;;;;;5066595;28;20611;-71
2022/05/18 00:39:11;;;;;;;7.13;5.57;;;16.40;99.90;;;;;;5042585;28;20195;-71
2022/05/18 00:41:38;;;;;;;11.07;5.90;;;16.40;99.90;;;;;;5060251;28;20201;-71
2022/05/18 00:44:06;;;;;;;8.60;5.67;;;16.40;99.90;;;;;;5064002;28;20245;-71
2022/05/18 00:46:33;;;;;;;7.87;5.97;;;16.50;99.90;;;;;;5056266;28;20217;-72
2022/05/18 00:49:10;;;;;;;6.63;5.40;;;16.50;99.90;;;;;;5029137;28;20501;-71
2022/05/18 00:51:55;;;;;;;10.03;5.53;;;16.50;99.90;;;;;;5067156;28;20276;-70
2022/05/18 00:54:32;;;;;;;11.43;5.30;;;16.50;99.90;;;;;;5068867;28;20273;-71
2022/05/18 00:57:08;;;;;;;6.40;5.07;;;16.60;99.90;;;;;;5073121;28;20222;-71
2022/05/18 00:59:50;;;;;;;6.97;4.93;;;16.70;99.90;;;;;;5068098;28;20189;-71
2022/05/18 01:02:21;;;;;;;7.10;4.70;;;16.70;99.90;;;;;;5063975;28;20238;-71
2022/05/18 01:04:56;;;;;;;7.87;5.17;;;16.80;99.90;;;;;;5060563;28;20223;-71
2022/05/18 01:07:38;;;;;;;6.53;4.97;;;16.80;99.90;;;;;;5033086;28;20258;-71
2022/05/18 01:10:11;;;;;;;7.73;5.37;;;16.90;99.90;;;;;;5049542;28;20222;-72
2022/05/18 01:12:38;;;;;;;7.27;4.60;;;16.90;99.90;;;;;;5053585;28;20865;-71
2022/05/18 01:15:13;;;;;;;9.17;5.23;;;17.00;99.90;;;;;;5049718;28;20261;-71
2022/05/18 01:17:44;;;;;;;7.40;4.70;;;17.00;99.90;;;;;;5064089;28;20738;-71
2022/05/18 01:20:17;;;;;;;5.60;4.73;;;17.10;99.90;;;;;;5063975;28;20225;-71
2022/05/18 01:23:11;;;;;;;7.57;5.10;;;17.10;99.90;;;;;;5065368;28;20185;-71
2022/05/18 01:26:04;;;;;;;6.50;5.00;;;17.30;99.90;;;;;;5066388;28;20229;-71
2022/05/18 01:28:41;;;;;;;8.33;5.03;;;17.40;99.90;;;;;;5046351;28;20274;-70
2022/05/18 01:31:08;;;;;;;6.30;4.90;;;17.50;99.90;;;;;;5079071;28;20202;-71
2022/05/18 01:33:35;;;;;;;7.57;5.10;;;17.50;99.90;;;;;;5061407;28;20202;-71
2022/05/18 01:36:04;;;;;;;6.83;4.23;;;17.60;99.90;;;;;;5068723;28;20297;-72
2022/05/18 01:38:32;;;;;;;9.67;4.57;;;17.60;99.90;;;;;;5061948;28;20207;-71
2022/05/18 01:41:21;;;;;;;8.37;4.80;;;17.50;99.90;;;;;;5042113;28;20274;-71
2022/05/18 01:44:01;;;;;;;11.07;5.10;;;17.50;99.90;;;;;;5070230;28;20191;-71
2022/05/18 01:46:32;;;;;;;8.03;4.30;;;17.50;99.90;;;;;;5077769;28;20219;-71
2022/05/18 01:48:59;;;;;;;7.30;4.10;;;17.50;99.90;;;;;;5046496;28;20191;-71
2022/05/18 01:51:43;;;;;;;7.00;4.53;;;17.50;99.90;;;;;;5042710;28;20257;-71
2022/05/18 01:54:10;;;;;;;8.53;4.17;;;17.50;99.90;;;;;;5049283;28;20190;-71
2022/05/18 01:56:37;;;;;;;8.07;4.20;;;17.50;99.90;;;;;;5046870;28;20214;-71
2022/05/18 01:59:08;;;;;;;6.67;4.00;;;17.50;99.90;;;;;;5064387;28;20186;-71
2022/05/18 02:01:35;;;;;;;8.30;4.07;;;17.40;99.90;;;;;;5065171;28;20594;-71
2022/05/18 02:04:02;;;;;;;6.90;3.87;;;17.40;99.90;;;;;;5056973;28;20183;-71
2022/05/18 02:06:32;;;;;;;9.17;4.30;;;17.30;99.90;;;;;;5067989;28;20271;-71
2022/05/18 02:09:00;;;;;;;6.37;4.20;;;17.30;99.90;;;;;;5054728;28;20187;-72
2022/05/18 02:11:27;;;;;;;6.57;3.73;;;17.30;99.90;;;;;;5055648;28;20187;-71
2022/05/18 02:13:56;;;;;;;5.53;3.90;;;17.30;99.90;;;;;;5058648;28;20547;-71
2022/05/18 02:16:23;;;;;;;4.47;3.70;;;17.20;99.90;;;;;;5063688;28;20975;-71
2022/05/18 02:18:49;;;;;;;10.03;4.30;;;17.20;99.90;;;;;;5049576;28;20966;-71
2022/05/18 02:21:17;;;;;;;5.47;3.93;;;17.10;99.90;;;;;;5067855;28;20243;-71
2022/05/18 02:23:44;;;;;;;5.07;3.77;;;17.10;99.90;;;;;;5064377;28;20681;-71
2022/05/18 02:26:19;;;;;;;6.57;4.27;;;17.10;99.90;;;;;;5060362;28;20206;-71
2022/05/18 02:28:46;;;;;;;4.47;3.53;;;17.00;99.90;;;;;;5048700;28;20246;-71
2022/05/18 02:31:14;;;;;;;6.63;3.87;;;16.90;99.90;;;;;;5052464;28;20202;-70
2022/05/18 02:33:44;;;;;;;7.40;3.60;;;16.90;99.90;;;;;;5073226;28;20256;-71
2022/05/18 02:36:12;;;;;;;9.67;4.30;;;16.90;99.90;;;;;;5058721;28;20198;-71
2022/05/18 02:38:42;;;;;;;6.63;3.90;;;16.90;99.90;;;;;;5051210;28;20180;-71
2022/05/18 02:41:15;;;;;;;6.13;3.80;;;16.90;99.90;;;;;;5047959;28;20616;-70
2022/05/18 02:43:41;;;;;;;5.33;4.07;;;16.90;99.90;;;;;;5066210;28;20198;-70
2022/05/18 02:46:09;;;;;;;5.27;3.80;;;16.90;99.90;;;;;;5063735;28;20250;-71
2022/05/18 02:48:38;;;;;;;9.00;3.73;;;16.90;99.90;;;;;;5067549;28;20269;-70
2022/05/18 02:51:06;;;;;;;8.57;3.77;;;16.90;99.90;;;;;;5042227;28;20187;-71
2022/05/18 02:53:33;;;;;;;5.13;3.70;;;16.80;99.90;;;;;;5067557;28;20194;-70
2022/05/18 02:56:08;;;;;;;8.37;3.67;;;16.90;99.90;;;;;;5062617;28;20603;-71
2022/05/18 02:58:42;;;;;;;5.63;4.10;;;16.80;99.90;;;;;;5044833;28;20278;-71
2022/05/18 03:01:15;;;;;;;5.53;3.60;;;16.80;99.90;;;;;;5051249;28;20681;-70
2022/05/18 03:03:44;;;;;;;7.07;3.50;;;16.70;99.90;;;;;;5083272;28;20191;-70
2022/05/18 03:06:14;;;;;;;6.00;3.63;;;16.70;99.90;;;;;;5048579;28;20289;-71
2022/05/18 03:08:43;;;;;;;9.90;3.87;;;16.70;99.90;;;;;;5061403;28;20198;-71
2022/05/18 03:11:11;;;;;;;7.00;4.10;;;16.70;99.90;;;;;;5057771;28;20201;-70
2022/05/18 03:13:38;;;;;;;5.33;3.77;;;16.70;99.90;;;;;;5060699;28;20186;-70
2022/05/18 03:16:06;;;;;;;4.10;3.60;;;16.70;99.90;;;;;;5042161;28;20581;-71
2022/05/18 03:18:33;;;;;;;4.23;3.73;;;16.70;99.90;;;;;;5049319;28;20596;-71
2022/05/18 03:23:45;;;;;;;5.03;3.70;;;16.70;99.90;;;;;;5059103;28;20192;-71
2022/05/18 03:26:22;;;;;;;6.93;3.80;;;16.70;99.90;;;;;;5063268;28;20197;-70
2022/05/18 03:28:56;;;;;;;4.40;3.50;;;16.70;99.90;;;;;;5060485;28;20731;-70
2022/05/18 03:31:25;;;;;;;6.80;3.70;;;16.70;99.90;;;;;;5044798;28;20206;-70
2022/05/18 03:33:56;;;;;;;4.53;3.60;;;16.70;99.90;;;;;;5065399;28;20496;-71
2022/05/18 03:36:23;;;;;;;4.70;3.93;;;16.70;99.90;;;;;;5029638;28;20183;-70
2022/05/18 03:38:52;;;;;;;5.90;3.77;;;16.70;99.90;;;;;;5049553;28;20183;-70
2022/05/18 03:41:21;;;;;;;6.63;3.90;;;16.60;99.90;;;;;;5057016;28;20621;-71
2022/05/18 03:43:47;;;;;;;5.87;4.00;;;16.60;99.90;;;;;;5034655;28;20191;-71
2022/05/18 03:46:15;;;;;;;6.13;4.03;;;16.70;99.90;;;;;;5063613;28;20278;-71
2022/05/18 03:48:50;;;;;;;6.83;3.87;;;16.70;99.90;;;;;;5059828;28;20722;-70
2022/05/18 03:51:18;;;;;;;4.33;3.70;;;16.60;99.90;;;;;;5052202;28;20178;-71
2022/05/18 03:53:46;;;;;;;5.63;3.90;;;16.60;99.90;;;;;;5055135;28;20195;-70
2022/05/18 03:56:15;;;;;;;5.77;4.10;;;16.60;99.90;;;;;;5049324;28;20592;-71
2022/05/18 03:58:43;;;;;;;7.60;4.40;;;16.70;99.90;;;;;;5064949;28;20282;-70
2022/05/18 04:01:13;;;;;;;6.33;4.00;;;16.70;99.90;;;;;;5051548;28;20516;-70
2022/05/18 04:03:46;;;;;;;4.20;3.80;;;16.70;99.90;;;;;;5044624;28;20540;-70
2022/05/18 04:06:15;;;;;;;6.67;3.67;;;16.70;99.90;;;;;;5063321;28;20187;-70
2022/05/18 04:08:42;;;;;;;7.23;4.17;;;16.70;99.90;;;;;;5045011;28;20271;-70
2022/05/18 04:11:09;;;;;;;6.40;4.13;;;16.70;99.90;;;;;;5043559;28;20193;-70
2022/05/18 04:13:35;;;;;;;7.30;3.90;;;16.70;99.90;;;;;;5058399;28;20191;-70
2022/05/18 04:16:05;;;;;;;4.97;3.90;;;16.80;99.90;;;;;;5046813;28;20211;-71
2022/05/18 04:18:34;;;;;;;8.73;4.13;;;16.80;99.90;;;;;;5064464;28;20199;-70
2022/05/18 04:21:06;;;;;;;8.23;4.43;;;16.90;99.90;;;;;;5065035;28;20194;-71
2022/05/18 04:23:33;;;;;;;5.13;3.63;;;17.00;99.90;;;;;;5081337;28;20218;-71
2022/05/18 04:26:02;;;;;;;7.23;4.00;;;17.10;99.90;;;;;;5065658;28;20201;-71
2022/05/18 04:28:36;;;;;;;9.80;3.83;;;17.10;99.90;;;;;;5074274;28;20871;-71
2022/05/18 04:31:03;;;;;;;6.23;3.80;;;17.20;99.90;;;;;;5052651;28;20234;-70
2022/05/18 04:33:30;;;;;;;8.70;4.20;;;17.20;99.90;;;;;;5044268;28;20539;-71
2022/05/18 04:36:01;;;;;;;6.23;3.77;;;17.30;99.90;;;;;;5062447;28;20278;-71
2022/05/18 04:38:29;;;;;;;8.33;3.70;;;17.40;99.90;;;;;;5070971;28;20191;-71
2022/05/18 04:40:56;;;;;;;5.53;3.90;;;17.40;99.90;;;;;;5065015;28;20229;-71
2022/05/18 04:43:27;;;;;;;9.67;4.30;;;17.50;99.90;;;;;;5050137;28;20614;-71
2022/05/18 04:45:55;;;;;;;5.30;4.13;;;17.60;99.90;;;;;;5074785;28;20199;-71
2022/05/18 04:48:24;;;;;;;9.33;4.50;;;17.70;99.90;;;;;;5074147;28;20414;-71
2022/05/18 04:50:51;;;;;;;6.97;4.23;;;17.80;99.90;;;;;;5059106;28;20191;-70
2022/05/18 04:53:19;;;;;;;5.17;4.30;;;17.80;99.90;;;;;;5041764;28;20195;-70
2022/05/18 04:55:47;;;;;;;5.60;4.37;;;17.90;99.90;;;;;;5050212;28;20195;-71
2022/05/18 04:58:14;;;;;;;6.87;4.10;;;17.90;99.90;;;;;;5062625;28;20183;-71
2022/05/18 05:00:44;;;;;;;5.57;4.33;;;18.00;99.90;;;;;;5061641;28;20207;-71
2022/05/18 05:03:13;;;;;;;4.87;4.17;;;18.10;99.90;;;;;;5066996;28;20290;-71
2022/05/18 05:05:39;;;;;;;7.07;4.70;;;18.10;99.90;;;;;;5081870;28;20611;-71
2022/05/18 05:08:06;;;;;;;8.83;4.17;;;18.10;99.90;;;;;;5054733;28;20233;-71
2022/05/18 05:10:35;;;;;;;4.63;4.13;;;18.20;99.90;;;;;;5046729;28;20218;-71
2022/05/18 05:13:05;;;;;;;7.37;4.60;;;18.20;99.90;;;;;;5073129;28;20551;-71
2022/05/18 05:15:32;;;;;;;7.77;4.33;;;18.30;99.90;;;;;;5051335;28;20179;-71
2022/05/18 05:18:00;;;;;;;7.13;4.30;;;18.30;99.90;;;;;;5083359;28;20216;-71
2022/05/18 05:20:27;;;;;;;5.20;4.10;;;18.40;99.90;;;;;;5073426;28;20203;-71
2022/05/18 05:22:54;;;;;;;6.70;4.30;;;18.40;99.90;;;;;;5039182;28;20611;-71
2022/05/18 05:25:20;;;;;;;8.83;4.67;;;18.50;99.90;;;;;;5055230;28;20840;-71
2022/05/18 05:27:47;;;;;;;7.27;4.30;;;18.50;99.90;;;;;;5055207;28;20219;-70
2022/05/18 05:30:14;;;;;;;6.57;4.00;;;18.70;99.90;;;;;;5059028;28;20265;-71
2022/05/18 05:32:47;;;;;;;8.53;4.67;;;18.80;99.90;;;;;;5059484;28;20215;-71
2022/05/18 05:35:14;;;;;;;6.10;4.60;;;18.80;99.90;;;;;;5048507;28;20193;-71
2022/05/18 05:37:40;;;;;;;6.87;4.40;;;18.90;99.90;;;;;;5076211;28;20851;-71
2022/05/18 05:40:08;;;;;;;5.70;4.30;;;18.90;99.90;;;;;;5064985;28;20225;-71
2022/05/18 05:42:40;;;;;;;6.57;4.23;;;19.00;99.90;;;;;;5066317;28;20272;-71
2022/05/18 05:45:10;;;;;;;5.83;4.27;;;19.00;99.90;;;;;;5079364;28;20199;-70
2022/05/18 05:47:40;;;;;;;7.10;4.40;;;19.10;99.90;;;;;;5049911;28;20664;-71
2022/05/18 05:50:08;;;;;;;10.03;4.57;;;19.10;99.90;;;;;;5057522;28;21000;-71
2022/05/18 05:52:35;;;;;;;7.00;4.20;;;19.20;99.90;;;;;;5065122;28;20186;-70
2022/05/18 05:55:01;;;;;;;5.43;4.63;;;19.30;99.90;;;;;;5048470;28;20516;-71
2022/05/18 05:57:32;;;;;;;5.33;4.10;;;19.30;99.90;;;;;;5059784;28;20731;-71
2022/05/18 06:00:02;;;;;;;6.47;4.80;;;19.50;99.90;;;;;;5033244;28;20260;-72
2022/05/18 06:02:29;;;;;;;7.60;4.70;;;19.50;99.90;;;;;;5070334;28;20821;-70
2022/05/18 06:04:55;;;;;;;7.20;4.90;;;19.70;99.90;;;;;;5069333;28;20375;-71
2022/05/18 06:07:21;;;;;;;14.03;5.03;;;19.80;99.90;;;;;;5068703;28;20222;-70
2022/05/18 06:09:48;;;;;;;6.43;4.30;;;20.00;99.90;;;;;;5048451;28;20333;-71
2022/05/18 06:12:32;;;;;;;8.23;4.97;;;20.10;99.90;;;;;;5047364;28;20198;-70
2022/05/18 06:15:00;;;;;;;6.80;4.50;;;20.10;99.90;;;;;;5064966;28;20652;-70
2022/05/18 06:17:27;;;;;;;7.30;4.93;;;20.20;99.90;;;;;;5068623;28;20230;-71
2022/05/18 06:19:53;;;;;;;6.13;4.90;;;20.30;99.90;;;;;;5067226;28;20843;-71
2022/05/18 06:22:19;;;;;;;7.20;4.90;;;20.30;99.90;;;;;;5047429;28;20187;-71
2022/05/18 06:24:51;;;;;;;5.90;4.33;;;20.40;99.90;;;;;;5045839;28;20264;-71
2022/05/18 06:27:22;;;;;;;7.20;4.73;;;20.50;99.90;;;;;;5051295;28;20207;-71
2022/05/18 06:29:52;;;;;;;8.97;5.23;;;20.60;99.90;;;;;;5063308;28;20584;-71
2022/05/18 06:32:21;;;;;;;8.57;4.50;;;20.60;99.90;;;;;;5069928;28;20705;-71
2022/05/18 06:34:54;;;;;;;6.40;4.80;;;20.70;99.90;;;;;;5054303;28;20309;-71
2022/05/18 06:37:21;;;;;;;5.47;4.43;;;20.80;99.90;;;;;;5055332;28;20199;-71
2022/05/18 06:39:47;;;;;;;5.60;4.70;;;20.90;99.90;;;;;;5061865;28;20190;-71
2022/05/18 06:42:14;;;;;;;9.13;4.60;;;20.90;99.90;;;;;;5054433;28;20588;-71
2022/05/18 06:44:40;;;;;;;5.77;4.43;;;21.00;99.90;;;;;;5071929;28;20194;-71
2022/05/18 06:47:07;;;;;;;8.50;5.00;;;21.10;99.90;;;;;;5063296;28;20310;-71
2022/05/18 06:49:33;;;;;;;11.10;4.57;;;21.20;99.90;;;;;;5066081;28;20247;-70
2022/05/18 06:52:00;;;;;;;8.83;4.23;;;21.30;99.90;;;;;;5059448;28;20183;-71
2022/05/18 06:54:26;;;;;;;11.17;4.77;;;21.40;99.90;;;;;;5081120;28;20225;-71
2022/05/18 06:56:53;;;;;;;6.33;4.97;;;21.40;99.90;;;;;;5054262;28;20194;-71
2022/05/18 06:59:19;;;;;;;6.00;4.50;;;21.70;99.90;;;;;;5065713;28;20555;-71
2022/05/18 07:01:49;;;;;;;8.47;4.97;;;21.70;99.90;;;;;;5066570;28;20535;-70
2022/05/18 07:04:16;;;;;;;11.90;5.40;;;21.80;99.90;;;;;;5043776;28;20628;-71
2022/05/18 07:06:51;;;;;;;11.33;4.50;;;21.90;99.90;;;;;;5039103;28;20222;-71
2022/05/18 07:09:24;;;;;;;9.30;5.17;;;21.90;99.90;;;;;;5061907;28;20202;-71
2022/05/18 07:12:00;;;;;;;6.33;5.00;;;22.00;99.90;;;;;;5045462;28;20218;-71
2022/05/18 07:14:30;;;;;;;9.00;4.70;;;22.20;99.90;;;;;;5055436;28;20194;-72
2022/05/18 07:16:58;;;;;;;13.77;5.73;;;22.20;99.90;;;;;;5060312;28;20782;-71
2022/05/18 07:19:25;;;;;;;9.70;5.70;;;22.30;99.90;;;;;;5059463;28;20191;-71
2022/05/18 07:21:51;;;;;;;7.03;5.17;;;22.30;99.90;;;;;;5070394;28;20198;-71
2022/05/18 07:24:18;;;;;;;9.37;5.47;;;22.40;99.90;;;;;;5043957;28;20184;-71
2022/05/18 07:26:46;;;;;;;13.35;5.38;;;22.40;99.90;;;;;;5056188;28;20685;-71
2022/05/18 07:29:15;;;;;;;10.93;6.30;;;22.40;99.90;;;;;;5058041;28;20179;-71
2022/05/18 07:34:30;;;;;;;9.13;6.17;;;22.50;99.90;;;;;;5053722;28;20800;-71
2022/05/18 07:36:57;;;;;;;11.87;5.77;;;22.60;99.90;;;;;;5055485;28;20209;-71
2022/05/18 07:39:28;;;;;;;9.07;6.10;;;22.60;99.90;;;;;;5073791;28;20643;-72
2022/05/18 07:41:56;;;;;;;9.75;5.70;;;22.70;99.90;;;;;;5055801;28;20336;-71
2022/05/18 07:44:25;;;;;;;7.15;5.57;;;22.70;99.90;;;;;;5062291;28;20190;-71
2022/05/18 07:46:51;;;;;;;7.77;5.33;;;22.80;99.90;;;;;;5055765;28;20218;-71
2022/05/18 07:49:18;;;;;;;8.75;5.32;;;22.90;99.90;;;;;;5048113;28;20259;-71
2022/05/18 07:51:45;;;;;;;9.00;5.45;;;22.90;99.90;;;;;;5042611;28;20214;-71
2022/05/18 07:54:12;;;;;;;10.98;5.80;;;22.90;99.90;;;;;;5059113;28;20245;-71
2022/05/18 07:56:39;;;;;;;10.75;6.30;;;22.90;99.90;;;;;;5059751;28;20715;-71
2022/05/18 07:59:08;;;;;;;13.77;5.47;;;23.10;99.90;;;;;;5056708;28;20567;-71
2022/05/18 08:01:36;;;;;;;7.63;5.38;;;23.10;99.90;;;;;;5060038;28;20195;-71
2022/05/18 08:04:06;;;;;;;12.77;6.13;;;23.10;99.90;;;;;;5055976;28;20234;-71
2022/05/18 08:06:33;;;;;;;11.05;5.75;;;23.20;99.90;;;;;;5054778;28;20214;-71
2022/05/18 08:09:01;;;;;;;10.98;5.97;;;23.20;99.90;;;;;;5058124;28;20871;-70
2022/05/18 08:17:21;;;;;;;11.25;6.32;;;23.40;99.90;;;;;;5027527;28;20290;-71
2022/05/18 08:19:47;;;;;;;14.52;6.10;;;23.50;99.90;;;;;;5024320;28;20668;-71
2022/05/18 08:22:15;;;;;;;10.45;6.40;;;23.40;99.90;;;;;;5019127;28;20223;-72
2022/05/18 08:24:41;;;;;;;12.00;6.22;;;23.60;99.90;;;;;;5054582;28;20278;-71
2022/05/18 08:27:15;;;;;;;13.65;6.13;;;23.70;99.90;;;;;;5067436;28;20214;-71
2022/05/18 08:29:44;;;;;;;9.75;6.22;;;23.70;99.90;;;;;;5055382;28;20288;-72
2022/05/18 08:32:11;;;;;;;13.27;6.18;;;23.80;99.90;;;;;;5059237;28;20586;-72
2022/05/18 08:34:37;;;;;;;8.50;5.80;;;24.00;99.90;;;;;;5064575;28;20598;-72
2022/05/18 08:37:03;;;;;;;8.82;6.35;;;24.00;99.90;;;;;;5024118;28;20187;-72
2022/05/18 08:39:31;;;;;;;10.13;6.70;;;24.10;99.90;;;;;;5062844;28;20209;-72
2022/05/18 08:42:01;;;;;;;13.38;6.57;;;24.10;99.90;;;;;;5051062;28;20191;-72
2022/05/18 08:44:36;;;;;;;12.35;6.15;;;24.10;99.90;;;;;;5069330;28;20321;-72
2022/05/18 08:47:48;;;;;;;10.32;6.50;;;24.20;99.90;;;;;;5063506;28;20686;-72
2022/05/18 08:50:19;;;;;;;13.20;6.63;;;24.30;99.90;;;;;;5080740;28;20565;-72
2022/05/18 08:53:17;;;;;;;8.07;6.28;;;24.40;99.90;;;;;;5068480;28;20240;-73
2022/05/18 08:56:01;;;;;;;12.05;6.72;;;24.40;99.90;;;;;;5055851;28;20615;-72
2022/05/18 08:58:45;;;;;;;10.50;6.28;;;24.40;99.90;;;;;;5064120;28;20186;-72
2022/05/18 09:01:40;;;;;;;17.70;6.68;;;24.60;99.90;;;;;;5052437;28;20718;-73
2022/05/18 09:04:15;;;;;;;11.65;7.10;;;24.70;99.90;;;;;;5064336;28;20209;-72
2022/05/18 09:07:00;;;;;;;9.20;6.53;;;25.00;99.90;;;;;;5050887;28;20221;-72
2022/05/18 09:10:16;;;;;;;14.82;7.03;;;25.00;99.90;;;;;;5070365;28;20536;-72
2022/05/18 09:12:52;;;;;;;10.13;6.55;;;25.10;99.90;;;;;;5051293;28;21042;-73
2022/05/18 09:15:36;;;;;;;8.70;5.93;;;25.10;99.90;;;;;;5066116;28;20641;-72
2022/05/18 09:19:01;;;;;;;12.93;6.55;;;25.30;99.90;;;;;;5060486;28;20218;-72
2022/05/18 09:22:10;;;;;;;16.17;6.28;;;25.30;99.90;;;;;;5034775;28;20660;-72
2022/05/18 09:25:26;;;;;;;10.18;6.53;;;25.30;99.90;;;;;;5029606;28;20920;-72
2022/05/18 09:28:11;;;;;;;9.73;6.07;;;25.30;99.90;;;;;;5076457;28;20238;-72
2022/05/18 09:31:02;;;;;;;10.77;6.28;;;25.40;99.90;;;;;;5034593;28;20182;-72
2022/05/18 09:33:54;;;;;;;9.20;6.22;;;25.40;99.90;;;;;;5061808;28;20198;-72
2022/05/18 09:36:40;;;;;;;13.13;6.10;;;25.50;99.90;;;;;;5066686;28;20199;-72
2022/05/18 09:39:17;;;;;;;10.65;6.25;;;25.50;99.90;;;;;;5054257;28;20667;-73
2022/05/18 09:42:15;;;;;;;8.50;5.97;;;25.60;99.90;;;;;;5064350;28;20205;-72
2022/05/18 09:45:02;;;;;;;10.20;6.05;;;25.60;99.90;;;;;;5048475;28;20199;-72
2022/05/18 09:47:39;;;;;;;10.55;6.28;;;25.80;99.90;;;;;;5049470;28;20198;-72
2022/05/18 09:50:09;;;;;;;8.20;6.20;;;25.80;99.90;;;;;;5061113;28;20193;-73
2022/05/18 09:52:40;;;;;;;15.77;6.70;;;26.00;99.90;;;;;;5050219;28;20730;-72
2022/05/18 09:55:12;;;;;;;10.65;6.18;;;25.90;99.90;;;;;;5032969;28;20639;-72
2022/05/18 09:58:01;;;;;;;10.18;5.70;;;26.00;99.90;;;;;;5061064;28;20290;-73
2022/05/18 10:00:33;;;;;;;8.65;6.60;;;26.10;99.90;;;;;;5066348;28;20183;-72
2022/05/18 10:09:12;;;;;;;11.65;6.00;;;26.30;99.90;;;;;;5066099;28;20198;-72
2022/05/18 10:11:39;;;;;;;11.18;5.75;;;26.30;99.90;;;;;;5026000;28;20227;-72
2022/05/18 10:14:16;;;;;;;11.07;6.30;;;26.30;99.90;;;;;;5027700;28;20547;-72
2022/05/18 10:17:07;;;;;;;11.98;5.75;;;26.30;99.90;;;;;;5059714;28;20191;-72
2022/05/18 10:19:52;;;;;;;10.70;6.15;;;26.20;99.90;;;;;;5069014;28;20259;-73
2022/05/18 10:22:28;;;;;;;13.45;5.72;;;26.20;99.90;;;;;;5065036;28;20269;-73
2022/05/18 10:25:24;;;;;;;9.25;5.53;;;26.20;99.90;;;;;;5054100;28;20182;-73
2022/05/18 10:27:51;;;;;;;11.05;5.70;;;26.10;99.90;;;;;;5057233;28;20694;-72
2022/05/18 10:30:34;;;;;;;13.40;5.22;;;26.10;99.90;;;;;;5046298;28;20183;-72
2022/05/18 10:33:29;;;;;;;12.38;6.30;;;26.00;99.90;;;;;;5042155;28;20290;-73
2022/05/18 10:36:06;;;;;;;8.35;5.78;;;26.00;99.90;;;;;;5057904;28;20198;-73
2022/05/18 10:38:35;;;;;;;10.75;5.40;;;26.00;99.90;;;;;;5068468;28;20186;-72
2022/05/18 10:41:09;;;;;;;12.13;5.72;;;26.00;99.90;;;;;;5050231;28;20792;-73
2022/05/18 10:43:54;;;;;;;8.88;5.20;;;26.00;99.90;;;;;;5075869;28;20191;-73
2022/05/18 10:46:45;;;;;;;10.70;5.00;;;26.10;99.90;;;;;;5044709;28;20214;-73
2022/05/18 10:49:36;;;;;;;9.55;5.50;;;26.10;99.90;;;;;;5063140;28;20198;-73
2022/05/18 10:52:17;;;;;;;9.02;4.78;;;26.20;99.90;;;;;;5061933;28;20189;-73
2022/05/18 10:54:57;;;;;;;8.05;5.25;;;26.20;99.90;;;;;;5059969;28;20187;-73
2022/05/18 10:57:38;;;;;;;6.88;5.05;;;26.10;99.90;;;;;;5064808;28;20217;-72
2022/05/18 11:00:12;;;;;;;8.70;5.15;;;26.10;99.90;;;;;;5062027;28;20233;-72
2022/05/18 11:03:20;;;;;;;10.48;5.18;;;26.10;99.90;;;;;;5066246;28;20214;-72
2022/05/18 11:05:53;;;;;;;7.75;4.78;;;26.20;99.90;;;;;;5047450;28;20233;-73
2022/05/18 11:08:30;;;;;;;9.18;5.10;;;26.20;99.90;;;;;;5026720;28;20223;-73
2022/05/18 11:11:30;;;;;;;5.65;4.47;;;26.20;99.90;;;;;;5043222;28;20244;-73
2022/05/18 11:14:19;;;;;;;6.60;4.70;;;26.10;99.90;;;;;;5073805;28;20682;-73
2022/05/18 11:17:10;;;;;;;9.70;4.00;;;26.10;99.90;;;;;;5039465;28;20187;-72
2022/05/18 11:20:22;;;;;;;8.27;4.70;;;26.10;99.90;;;;;;5060680;28;20191;-73
2022/05/18 11:23:45;;;;;;;9.43;4.22;;;26.10;99.90;;;;;;5064208;28;20183;-73
2022/05/18 11:26:55;;;;;;;9.32;4.60;;;26.10;99.90;;;;;;5061786;28;20210;-73
2022/05/18 11:30:00;;;;;;;7.10;4.10;;;26.00;99.90;;;;;;5067264;28;20195;-73
2022/05/18 11:33:16;;;;;;;8.27;4.00;;;26.10;99.90;;;;;;5054282;28;20207;-73
2022/05/18 11:36:13;;;;;;;9.32;4.32;;;26.20;99.90;;;;;;5061708;28;20210;-73
2022/05/18 11:39:14;;;;;;;8.52;4.10;;;26.20;99.90;;;;;;5065282;28;20190;-72
2022/05/18 11:42:18;;;;;;;9.75;4.60;;;26.30;99.90;;;;;;5062551;28;20191;-73
2022/05/18 11:45:07;;;;;;;6.68;4.53;;;26.20;99.90;;;;;;5049001;28;20298;-73
2022/05/18 11:48:14;;;;;;;8.35;3.92;;;26.20;99.90;;;;;;5064717;28;20211;-73
2022/05/18 11:51:31;;;;;;;11.00;4.15;;;26.10;99.90;;;;;;5070331;28;20178;-72
2022/05/18 11:54:29;;;;;;;7.07;4.25;;;26.20;99.90;;;;;;5046377;28;20647;-73
2022/05/18 11:57:59;;;;;;;9.18;4.60;;;26.20;99.90;;;;;;5062260;28;20197;-73
2022/05/18 12:00:58;;;;;;;9.13;4.38;;;26.30;99.90;;;;;;5036867;28;20199;-73
2022/05/18 12:04:17;;;;;;;12.32;4.72;;;26.20;99.90;;;;;;5060703;28;21000;-73
2022/05/18 12:07:01;;;;;;;12.45;4.57;;;26.20;99.90;;;;;;5042901;28;20613;-73
2022/05/18 12:10:16;;;;;;;11.23;4.03;;;26.30;99.90;;;;;;5041843;28;20214;-73
2022/05/18 12:13:09;;;;;;;9.00;4.43;;;26.30;99.90;;;;;;5066060;28;20207;-73
2022/05/18 12:15:47;;;;;;;8.32;4.57;;;26.30;99.90;;;;;;5050712;28;20659;-73
2022/05/18 12:18:26;;;;;;;11.13;4.03;;;26.30;99.90;;;;;;5066196;28;20186;-72
2022/05/18 12:21:07;;;;;;;4.95;4.03;;;26.20;99.90;;;;;;5065711;28;20226;-73
2022/05/18 12:23:51;;;;;;;8.23;4.50;;;26.20;99.90;;;;;;5048659;28;20269;-73
2022/05/18 12:26:23;;;;;;;9.05;4.45;;;26.10;99.90;;;;;;5070033;28;20255;-73
2022/05/18 12:28:51;;;;;;;8.82;4.55;;;26.10;99.90;;;;;;5059058;28;20247;-72
2022/05/18 12:31:18;;;;;;;7.75;4.10;;;26.10;99.90;;;;;;5061165;28;20222;-72
2022/05/18 12:34:02;;;;;;;7.30;4.35;;;26.00;99.90;;;;;;5055407;28;20273;-72
2022/05/18 12:36:46;;;;;;;7.22;4.30;;;26.00;99.90;;;;;;5041360;28;20222;-72
2022/05/18 12:39:43;;;;;;;9.57;4.80;;;26.10;99.90;;;;;;5055866;28;20270;-72
2022/05/18 12:42:22;;;;;;;10.15;4.65;;;26.10;99.90;;;;;;5060023;28;20264;-72
2022/05/18 12:45:04;;;;;;;10.98;4.25;;;26.10;99.90;;;;;;5041673;28;20736;-72
2022/05/18 12:47:48;;;;;;;8.60;4.05;;;26.10;99.90;;;;;;5060153;28;20214;-71
2022/05/18 12:50:52;;;;;;;7.63;4.40;;;26.10;99.90;;;;;;5062100;28;20278;-71
2022/05/18 12:53:25;;;;;;;6.47;4.20;;;26.10;99.90;;;;;;5042284;28;20190;-71
2022/05/18 12:56:08;;;;;;;8.38;4.88;;;26.10;99.90;;;;;;5052689;28;20183;-71
2022/05/18 12:58:44;;;;;;;7.60;4.28;;;26.10;99.90;;;;;;5057900;28;20240;-71
2022/05/18 13:01:17;;;;;;;4.47;3.95;;;26.10;99.90;;;;;;5063604;28;20270;-71
2022/05/18 13:04:19;;;;;;;16.50;5.10;;;26.00;99.90;;;;;;5063287;28;20202;-71
2022/05/18 13:07:00;;;;;;;8.15;4.28;;;26.10;99.90;;;;;;5060422;28;20217;-71
2022/05/18 13:09:36;;;;;;;12.85;4.50;;;26.00;99.90;;;;;;5046364;28;20206;-71
2022/05/18 13:12:18;;;;;;;15.38;4.65;;;26.00;99.90;;;;;;5070889;28;20228;-71
2022/05/18 13:15:14;;;;;;;10.35;4.75;;;26.00;99.90;;;;;;5062158;28;20199;-71
2022/05/18 13:18:07;;;;;;;9.50;3.90;;;26.00;99.90;;;;;;5057079;28;20304;-70
2022/05/18 13:21:09;;;;;;;5.70;4.13;;;25.70;99.90;;;;;;5059989;28;20203;-71
2022/05/18 13:24:06;;;;;;;6.22;4.15;;;25.90;99.90;;;;;;5044817;28;20221;-71
2022/05/18 13:26:44;;;;;;;9.18;4.25;;;25.90;99.90;;;;;;5023043;28;20187;-72
2022/05/18 13:29:30;;;;;;;8.82;4.40;;;25.80;99.90;;;;;;5046165;28;20671;-70
2022/05/18 13:32:05;;;;;;;7.88;4.20;;;25.80;99.90;;;;;;5052624;28;20256;-72
2022/05/18 13:34:45;;;;;;;5.00;4.15;;;25.90;99.90;;;;;;5049751;28;20187;-71
2022/05/18 13:37:12;;;;;;;9.73;4.00;;;25.60;99.90;;;;;;5042958;28;20183;-71
2022/05/18 13:39:48;;;;;;;7.50;3.97;;;25.50;99.90;;;;;;5058666;28;20195;-71
2022/05/18 13:42:16;;;;;;;4.90;3.80;;;25.50;99.90;;;;;;5041979;28;20674;-71
2022/05/18 13:44:44;;;;;;;7.45;3.88;;;25.40;99.90;;;;;;5080742;28;20732;-72
2022/05/18 13:47:23;;;;;;;8.43;4.35;;;25.50;99.90;;;;;;5061460;28;20209;-71